Manheim, Texas
Current Conditions -  °F | °C
As of 12:35 AM on Thursday 27 Nov 2014 (Local Time) from KGYB Reporting Station
Clear Clear  
Wind Chill: 52°   Ceiling: Unl
Heat Index: 52°   Visibility: 10mi
Dew Point: 34°   Wind: 3mph
Humidity: 50%   Direction: 360°N
Pressure: 30.4"   Gusts: NA
Location:  30.1897°N, 97.1182°W
Report Text: KGYB 270635Z AUTO 36003KT 10SM CLR 11/01 A3040 RMK AO2 T01110011
Loading
Personal Weather Stations






























Interactive Weather Map New forecast layout! Learn more

10-Day Weather Forecast

Advertisements
Track Severe Weather on mobile